createdAt,value
2018-12-15T00:01:33.132Z,2.00
2018-12-15T00:04:01.576Z,2.00
2018-12-15T00:06:30.040Z,2.00
2018-12-15T00:08:59.394Z,2.00
2018-12-15T00:11:27.879Z,2.00
2018-12-15T00:13:56.326Z,2.10
2018-12-15T00:16:24.919Z,2.10
2018-12-15T00:18:53.426Z,2.00
2018-12-15T00:21:21.916Z,2.10
2018-12-15T00:23:50.390Z,2.10
2018-12-15T00:26:18.870Z,2.10
2018-12-15T00:28:47.334Z,2.00
2018-12-15T00:31:15.779Z,2.00
2018-12-15T00:33:44.891Z,2.00
2018-12-15T00:36:13.488Z,2.00
2018-12-15T00:38:42.084Z,2.00
2018-12-15T00:41:10.592Z,2.00
2018-12-15T00:43:39.148Z,2.00
2018-12-15T00:46:07.587Z,2.00
2018-12-15T00:48:36.105Z,2.00
2018-12-15T00:51:04.682Z,2.00
2018-12-15T00:53:33.215Z,2.00
2018-12-15T00:56:01.714Z,2.00
2018-12-15T00:58:30.205Z,2.00
2018-12-15T01:00:58.687Z,2.00
2018-12-15T01:03:27.826Z,2.00
2018-12-15T01:05:56.325Z,2.00
2018-12-15T01:08:24.832Z,2.10
2018-12-15T01:10:53.288Z,2.00
2018-12-15T01:13:22.064Z,1.90
2018-12-15T01:15:50.557Z,2.00
2018-12-15T01:18:19.018Z,2.00
2018-12-15T01:20:47.461Z,2.00
2018-12-15T01:23:15.947Z,2.10
2018-12-15T01:25:44.467Z,2.10
2018-12-15T01:28:12.957Z,2.10
2018-12-15T01:30:41.493Z,2.10
2018-12-15T01:33:09.934Z,2.10
2018-12-15T01:35:38.397Z,2.10
2018-12-15T01:38:06.853Z,2.10
2018-12-15T01:40:35.348Z,2.10
2018-12-15T01:43:04.065Z,2.10
2018-12-15T01:45:32.582Z,2.00
2018-12-15T01:48:01.032Z,2.10
2018-12-15T01:50:29.489Z,2.00
2018-12-15T01:52:57.966Z,2.00
2018-12-15T01:55:26.565Z,2.00
2018-12-15T01:57:55.009Z,2.00
2018-12-15T02:00:23.730Z,2.10
2018-12-15T02:02:52.167Z,2.10
2018-12-15T02:05:20.882Z,2.10
2018-12-15T02:07:49.339Z,2.00
2018-12-15T02:10:17.854Z,2.00
2018-12-15T02:12:46.317Z,2.00
2018-12-15T02:15:14.813Z,2.00
2018-12-15T02:17:43.286Z,2.00
2018-12-15T02:20:11.778Z,2.00
2018-12-15T02:22:40.319Z,1.90
2018-12-15T02:25:08.767Z,1.90
2018-12-15T02:27:37.253Z,1.90
2018-12-15T02:30:06.821Z,2.00
2018-12-15T02:32:35.284Z,2.00
2018-12-15T02:35:03.897Z,1.90
2018-12-15T02:37:36.143Z,1.90
2018-12-15T02:40:06.679Z,1.90
2018-12-15T02:42:35.225Z,1.90
2018-12-15T02:45:03.935Z,1.90
2018-12-15T02:47:32.430Z,1.80
2018-12-15T02:50:00.859Z,1.80
2018-12-15T02:52:29.301Z,1.80
2018-12-15T02:54:57.751Z,1.80
2018-12-15T02:57:26.298Z,1.70
2018-12-15T02:59:54.759Z,1.80
2018-12-15T03:02:23.216Z,1.70
2018-12-15T03:04:51.659Z,1.80
2018-12-15T03:07:20.139Z,1.70
2018-12-15T03:09:48.582Z,1.80
2018-12-15T03:12:17.028Z,1.80
2018-12-15T03:14:45.508Z,1.80
2018-12-15T03:17:13.944Z,1.80
2018-12-15T03:19:42.420Z,1.80
2018-12-15T03:22:10.882Z,1.80
2018-12-15T03:24:39.326Z,1.70
2018-12-15T03:27:07.758Z,1.70
2018-12-15T03:29:36.238Z,1.70
2018-12-15T03:32:04.697Z,1.70
2018-12-15T03:34:33.272Z,1.70
2018-12-15T03:37:01.727Z,1.60
2018-12-15T03:39:30.257Z,1.60
2018-12-15T03:41:58.829Z,1.60
2018-12-15T03:44:27.309Z,1.60
2018-12-15T03:46:55.771Z,1.60
2018-12-15T03:49:24.839Z,1.60
2018-12-15T03:51:53.251Z,1.60
2018-12-15T03:54:21.725Z,1.60
2018-12-15T03:56:50.203Z,1.60
2018-12-15T03:59:19.363Z,1.60
2018-12-15T04:01:47.850Z,1.60
2018-12-15T04:04:17.309Z,1.60
2018-12-15T04:06:45.786Z,1.60
2018-12-15T04:09:14.212Z,1.70
2018-12-15T04:11:42.721Z,1.70
2018-12-15T04:14:11.176Z,1.60
2018-12-15T04:16:39.665Z,1.60
2018-12-15T04:19:08.113Z,1.70
2018-12-15T04:21:36.667Z,1.70
2018-12-15T04:24:05.117Z,1.70
2018-12-15T04:26:33.739Z,1.70
2018-12-15T04:29:02.190Z,1.70
2018-12-15T04:31:30.680Z,1.60
2018-12-15T04:33:59.165Z,1.60
2018-12-15T04:36:27.624Z,1.70
2018-12-15T04:38:56.078Z,1.60
2018-12-15T04:41:24.570Z,1.70
2018-12-15T04:43:53.234Z,1.70
2018-12-15T04:46:21.676Z,1.60
2018-12-15T04:48:50.156Z,1.60
2018-12-15T04:51:19.026Z,1.70
2018-12-15T04:53:47.505Z,1.60
2018-12-15T04:56:15.936Z,1.70
2018-12-15T04:58:44.409Z,1.60
2018-12-15T05:01:12.964Z,1.60
2018-12-15T05:03:41.431Z,1.60
2018-12-15T05:06:09.886Z,1.70
2018-12-15T05:08:38.353Z,1.70
2018-12-15T05:11:06.811Z,1.60
2018-12-15T05:13:35.304Z,1.70
2018-12-15T05:16:03.761Z,1.70
2018-12-15T05:18:32.376Z,1.60
2018-12-15T05:21:00.860Z,1.60
2018-12-15T05:23:29.437Z,1.60
2018-12-15T05:25:57.975Z,1.60
2018-12-15T05:28:26.469Z,1.60
2018-12-15T05:30:54.966Z,1.60
2018-12-15T05:33:23.412Z,1.60
2018-12-15T05:35:51.967Z,1.60
2018-12-15T05:38:20.370Z,1.60
2018-12-15T05:40:48.834Z,1.50
2018-12-15T05:43:17.361Z,1.50
2018-12-15T05:45:45.907Z,1.60
2018-12-15T05:48:14.324Z,1.60
2018-12-15T05:50:42.775Z,1.60
2018-12-15T05:53:11.194Z,1.60
2018-12-15T05:55:39.694Z,1.50
2018-12-15T05:58:08.139Z,1.50
2018-12-15T06:00:36.610Z,1.50
2018-12-15T06:03:05.003Z,1.60
2018-12-15T06:05:33.619Z,1.60
2018-12-15T06:08:02.055Z,1.60
2018-12-15T06:10:30.508Z,1.60
2018-12-15T06:12:58.989Z,1.60
2018-12-15T06:15:27.447Z,1.60
2018-12-15T06:17:55.971Z,1.60
2018-12-15T06:20:24.453Z,1.50
2018-12-15T06:22:52.877Z,1.60
2018-12-15T06:25:21.285Z,1.60
2018-12-15T06:27:49.751Z,1.60
2018-12-15T06:30:18.200Z,1.60
2018-12-15T06:32:46.646Z,1.50
2018-12-15T06:35:15.074Z,1.50
2018-12-15T06:37:43.571Z,1.50
2018-12-15T06:40:12.058Z,1.60
2018-12-15T06:42:40.548Z,1.60
2018-12-15T06:45:09.212Z,1.60
2018-12-15T06:47:37.687Z,1.50
2018-12-15T06:50:06.403Z,1.60
2018-12-15T06:52:34.851Z,1.50
2018-12-15T06:55:03.490Z,1.60
2018-12-15T06:57:31.978Z,1.50
2018-12-15T07:00:00.440Z,1.50
2018-12-15T07:02:29.047Z,1.50
2018-12-15T07:04:57.553Z,1.60
2018-12-15T07:07:26.032Z,1.60
2018-12-15T07:09:54.460Z,1.70
2018-12-15T07:12:22.919Z,1.70
2018-12-15T07:14:51.427Z,1.60
2018-12-15T07:17:19.886Z,1.60
2018-12-15T07:19:48.353Z,1.60
2018-12-15T07:22:16.854Z,1.60
2018-12-15T07:24:45.295Z,1.60
2018-12-15T07:27:13.740Z,1.60
2018-12-15T07:29:42.423Z,1.60
2018-12-15T07:32:11.012Z,1.50
2018-12-15T07:34:39.489Z,1.50
2018-12-15T07:37:07.984Z,1.50
2018-12-15T07:39:36.527Z,1.50
2018-12-15T07:42:05.331Z,1.50
2018-12-15T07:44:33.944Z,1.50
2018-12-15T07:47:03.111Z,1.50
2018-12-15T07:49:31.564Z,1.50
2018-12-15T07:52:00.150Z,1.50
2018-12-15T07:54:28.674Z,1.50
2018-12-15T07:56:57.128Z,1.50
2018-12-15T07:59:25.644Z,1.50
2018-12-15T08:01:54.324Z,1.50
2018-12-15T08:04:22.879Z,1.50
2018-12-15T08:06:51.374Z,1.50
2018-12-15T08:09:19.922Z,1.50
2018-12-15T08:11:53.687Z,1.50
2018-12-15T08:14:22.215Z,1.50
2018-12-15T08:16:50.812Z,1.50
2018-12-15T08:19:19.277Z,1.50
2018-12-15T08:21:48.333Z,1.60
2018-12-15T08:24:17.373Z,1.60
2018-12-15T08:26:45.892Z,1.60
2018-12-15T08:29:14.458Z,1.60
2018-12-15T08:31:42.930Z,1.60
2018-12-15T08:34:12.335Z,1.60
2018-12-15T08:36:41.158Z,1.60
2018-12-15T08:39:09.909Z,1.60
2018-12-15T08:41:38.393Z,1.60
2018-12-15T08:44:06.959Z,1.70
2018-12-15T08:46:35.439Z,1.70
2018-12-15T08:49:04.688Z,1.70
2018-12-15T08:51:33.546Z,1.70
2018-12-15T08:54:02.039Z,1.70
2018-12-15T08:56:30.566Z,1.70
2018-12-15T08:58:59.050Z,1.70
2018-12-15T09:01:27.468Z,1.80
2018-12-15T09:03:56.031Z,1.80
2018-12-15T09:06:24.597Z,1.80
2018-12-15T09:08:53.067Z,1.80
2018-12-15T09:11:21.572Z,1.80
2018-12-15T09:13:50.072Z,1.90
2018-12-15T09:16:18.599Z,1.90
2018-12-15T09:18:47.048Z,1.90
2018-12-15T09:21:15.529Z,1.90
2018-12-15T09:23:44.215Z,2.00
2018-12-15T09:26:12.679Z,2.00
2018-12-15T09:28:41.171Z,2.00
2018-12-15T09:31:09.646Z,2.00
2018-12-15T09:33:38.142Z,2.00
2018-12-15T09:36:06.641Z,2.00
2018-12-15T09:38:35.128Z,2.00
2018-12-15T09:41:03.763Z,2.10
2018-12-15T09:43:32.262Z,2.10
2018-12-15T09:46:00.820Z,2.10
2018-12-15T09:48:29.284Z,2.10
2018-12-15T09:50:57.800Z,2.10
2018-12-15T09:53:26.324Z,2.10
2018-12-15T09:55:54.758Z,2.10
2018-12-15T09:58:23.235Z,2.00
2018-12-15T10:00:51.753Z,2.00
2018-12-15T10:03:20.208Z,2.10
2018-12-15T10:05:48.682Z,2.10
2018-12-15T10:08:17.095Z,2.10
2018-12-15T10:10:45.640Z,2.10
2018-12-15T10:13:14.126Z,2.00
2018-12-15T10:15:42.634Z,2.00
2018-12-15T10:18:11.126Z,2.00
2018-12-15T10:20:39.615Z,1.90
2018-12-15T10:23:08.130Z,2.00
2018-12-15T10:25:36.716Z,2.00
2018-12-15T10:28:05.472Z,2.00
2018-12-15T10:30:39.427Z,2.00
2018-12-15T10:33:08.509Z,2.00
2018-12-15T10:35:37.135Z,2.10
2018-12-15T10:38:05.637Z,2.10
2018-12-15T10:40:34.063Z,2.10
2018-12-15T10:43:02.635Z,2.00
2018-12-15T10:45:31.117Z,2.00
2018-12-15T10:47:59.618Z,2.00
2018-12-15T10:50:28.275Z,1.90
2018-12-15T10:52:56.744Z,2.00
2018-12-15T10:55:25.186Z,2.00
2018-12-15T10:57:53.729Z,2.00
2018-12-15T11:00:26.267Z,2.00
2018-12-15T11:02:55.203Z,2.00
2018-12-15T11:05:30.093Z,2.00
2018-12-15T11:07:58.611Z,2.00
2018-12-15T11:10:27.080Z,2.10
2018-12-15T11:12:55.642Z,2.20
2018-12-15T11:15:24.099Z,2.10
2018-12-15T11:17:52.595Z,2.10
2018-12-15T11:20:21.083Z,2.10
2018-12-15T11:22:49.540Z,2.20
2018-12-15T11:25:17.997Z,2.20
2018-12-15T11:27:46.466Z,2.20
2018-12-15T11:30:14.914Z,2.20
2018-12-15T11:32:43.363Z,2.20
2018-12-15T11:35:11.795Z,2.10
2018-12-15T11:37:40.256Z,2.10
2018-12-15T11:40:08.818Z,2.20
2018-12-15T11:42:37.364Z,2.20
2018-12-15T11:45:06.390Z,2.20
2018-12-15T11:47:34.894Z,2.20
2018-12-15T11:50:03.351Z,2.10
2018-12-15T11:52:31.839Z,2.20
2018-12-15T11:55:00.348Z,2.20
2018-12-15T11:57:28.914Z,2.20
2018-12-15T11:59:57.436Z,2.30
2018-12-15T12:02:31.714Z,2.30
2018-12-15T12:04:56.462Z,2.30
2018-12-15T12:07:24.938Z,2.30
2018-12-15T12:09:53.427Z,2.30
2018-12-15T12:12:21.986Z,2.20
2018-12-15T12:14:50.538Z,2.20
2018-12-15T12:17:18.998Z,2.30
2018-12-15T12:19:50.286Z,2.40
2018-12-15T12:22:18.145Z,2.40
2018-12-15T12:24:46.621Z,2.40
2018-12-15T12:27:15.145Z,2.40
2018-12-15T12:29:43.684Z,2.40
2018-12-15T12:32:12.186Z,2.40
2018-12-15T12:34:40.692Z,2.40
2018-12-15T12:37:09.262Z,2.50
2018-12-15T12:39:37.729Z,2.50
2018-12-15T12:42:06.253Z,2.40
2018-12-15T12:44:34.862Z,2.40
2018-12-15T12:47:03.553Z,2.50
2018-12-15T12:49:32.024Z,2.60
2018-12-15T12:52:00.472Z,2.60
2018-12-15T12:54:29.043Z,2.60
2018-12-15T12:56:57.587Z,2.50
2018-12-15T12:59:26.071Z,2.50
2018-12-15T13:01:54.560Z,2.50
2018-12-15T13:04:23.010Z,2.50
2018-12-15T13:06:51.822Z,2.40
2018-12-15T13:09:20.304Z,2.40
2018-12-15T13:11:48.938Z,2.40
2018-12-15T13:14:17.560Z,2.40
2018-12-15T13:16:46.002Z,2.40
2018-12-15T13:19:14.516Z,2.40
2018-12-15T13:21:42.998Z,2.40
2018-12-15T13:24:11.517Z,2.40
2018-12-15T13:26:40.011Z,2.40
2018-12-15T13:29:08.593Z,2.40
2018-12-15T13:31:37.104Z,2.40
2018-12-15T13:34:05.873Z,2.40
2018-12-15T13:36:34.341Z,2.50
2018-12-15T13:39:04.085Z,2.60
2018-12-15T13:41:32.693Z,2.70
2018-12-15T13:44:01.201Z,2.70
2018-12-15T13:46:34.313Z,2.60
2018-12-15T13:49:02.776Z,2.60
2018-12-15T13:51:31.307Z,2.60
2018-12-15T13:53:59.846Z,2.60
2018-12-15T13:56:28.282Z,2.60
2018-12-15T13:58:56.726Z,2.50
2018-12-15T14:01:25.171Z,2.50
2018-12-15T14:03:53.659Z,2.40
2018-12-15T14:06:22.215Z,2.40
2018-12-15T14:08:50.812Z,2.40
2018-12-15T14:11:19.372Z,2.40
2018-12-15T14:13:47.863Z,2.40
2018-12-15T14:16:16.354Z,2.40
2018-12-15T14:18:44.805Z,2.30
2018-12-15T14:21:13.361Z,2.30
2018-12-15T14:23:41.974Z,2.30
2018-12-15T14:26:10.575Z,2.20
2018-12-15T14:28:39.020Z,2.30
2018-12-15T14:31:07.559Z,2.20
2018-12-15T14:33:36.022Z,2.20
2018-12-15T14:36:04.517Z,2.10
2018-12-15T14:38:33.045Z,2.10
2018-12-15T14:41:01.505Z,2.10
2018-12-15T14:43:30.072Z,2.10
2018-12-15T14:45:58.564Z,2.00
2018-12-15T14:48:27.018Z,2.00
2018-12-15T14:50:55.539Z,2.00
2018-12-15T14:53:24.079Z,2.00
2018-12-15T14:55:52.596Z,1.90
2018-12-15T14:58:21.274Z,1.80
2018-12-15T15:00:49.893Z,1.90
2018-12-15T15:03:18.527Z,1.80
2018-12-15T15:05:47.005Z,1.80
2018-12-15T15:08:15.531Z,1.80
2018-12-15T15:10:44.634Z,1.70
2018-12-15T15:13:13.147Z,1.70
2018-12-15T15:15:41.912Z,1.60
2018-12-15T15:18:10.380Z,1.50
2018-12-15T15:20:39.003Z,1.50
2018-12-15T15:23:07.444Z,1.40
2018-12-15T15:25:35.901Z,1.40
2018-12-15T15:28:04.427Z,1.30
2018-12-15T15:30:32.925Z,1.30
2018-12-15T15:33:01.443Z,1.30
2018-12-15T15:35:29.955Z,1.20
2018-12-15T15:37:58.428Z,1.20
2018-12-15T15:40:27.033Z,1.10
2018-12-15T15:42:55.635Z,1.10
2018-12-15T15:45:24.156Z,1.10
2018-12-15T15:47:52.593Z,1.10
2018-12-15T15:50:22.361Z,1.10
2018-12-15T15:52:50.867Z,1.10
2018-12-15T15:55:19.408Z,1.00
2018-12-15T15:57:47.879Z,1.00
2018-12-15T16:00:16.391Z,1.10
2018-12-15T16:02:44.851Z,1.00
2018-12-15T16:05:13.353Z,1.10
2018-12-15T16:07:42.311Z,1.00
2018-12-15T16:10:11.782Z,1.00
2018-12-15T16:12:40.285Z,1.00
2018-12-15T16:15:10.058Z,1.00
2018-12-15T16:17:38.567Z,1.00
2018-12-15T16:20:10.071Z,1.00
2018-12-15T16:22:38.564Z,0.90
2018-12-15T16:25:07.292Z,0.90
2018-12-15T16:27:35.770Z,0.90
2018-12-15T16:30:07.076Z,0.90
2018-12-15T16:32:35.566Z,0.80
2018-12-15T16:35:04.911Z,0.90
2018-12-15T16:37:33.560Z,0.80
2018-12-15T16:40:02.185Z,0.80
2018-12-15T16:42:30.822Z,0.90
2018-12-15T16:44:59.375Z,0.90
2018-12-15T16:47:28.314Z,0.90
2018-12-15T16:49:56.903Z,1.00
2018-12-15T16:52:26.043Z,0.90
2018-12-15T16:54:54.971Z,1.00
2018-12-15T16:57:23.512Z,1.00
2018-12-15T16:59:52.344Z,0.90
2018-12-15T17:02:21.219Z,0.90
2018-12-15T17:04:52.720Z,0.90
2018-12-15T17:07:21.601Z,0.90
2018-12-15T17:09:55.073Z,0.90
2018-12-15T17:12:23.535Z,0.90
2018-12-15T17:14:52.174Z,0.80
2018-12-15T17:17:20.828Z,0.80
2018-12-15T17:19:49.307Z,0.90
2018-12-15T17:22:19.236Z,0.90
2018-12-15T17:24:47.843Z,0.80
2018-12-15T17:27:27.151Z,0.80
2018-12-15T17:29:56.101Z,0.80
2018-12-15T17:32:24.749Z,0.80
2018-12-15T17:34:54.756Z,0.70
2018-12-15T17:37:23.565Z,0.70
2018-12-15T17:39:52.082Z,0.60
2018-12-15T17:42:20.715Z,0.60
2018-12-15T17:44:49.211Z,0.60
2018-12-15T17:47:19.768Z,0.60
2018-12-15T17:49:48.541Z,0.60
2018-12-15T17:52:17.055Z,0.50
2018-12-15T17:54:45.905Z,0.50
2018-12-15T17:57:14.611Z,0.50
2018-12-15T17:59:44.275Z,0.50
2018-12-15T18:02:13.867Z,0.50
2018-12-15T18:04:42.418Z,0.50
2018-12-15T18:07:12.854Z,0.50
2018-12-15T18:09:41.938Z,0.40
2018-12-15T18:12:10.814Z,0.40
2018-12-15T18:14:39.991Z,0.40
2018-12-15T18:17:09.160Z,0.40
2018-12-15T18:19:38.105Z,0.40
2018-12-15T18:22:07.172Z,0.40
2018-12-15T18:24:36.762Z,0.40
2018-12-15T18:27:05.455Z,0.30
2018-12-15T18:29:34.240Z,0.30
2018-12-15T18:32:02.890Z,0.30
2018-12-15T18:34:31.643Z,0.30
2018-12-15T18:37:00.296Z,0.30
2018-12-15T18:39:29.204Z,0.30
2018-12-15T18:41:58.917Z,0.30
2018-12-15T18:44:28.935Z,0.30
2018-12-15T18:46:57.812Z,0.30
2018-12-15T18:49:26.433Z,0.30
2018-12-15T18:51:55.425Z,0.30
2018-12-15T18:54:24.342Z,0.30
2018-12-15T18:56:53.240Z,0.20
2018-12-15T18:59:22.063Z,0.20
2018-12-15T19:01:50.581Z,0.20
2018-12-15T19:04:20.917Z,0.20
2018-12-15T19:06:49.633Z,0.20
2018-12-15T19:09:18.822Z,0.20
2018-12-15T19:11:48.650Z,0.10
2018-12-15T19:14:18.410Z,0.10
2018-12-15T19:16:46.904Z,0.20
2018-12-15T19:19:15.502Z,0.20
2018-12-15T19:21:44.614Z,0.20
2018-12-15T19:24:13.564Z,0.10
2018-12-15T19:26:43.180Z,0.10
2018-12-15T19:29:12.713Z,0.10
2018-12-15T19:31:42.722Z,0.10
2018-12-15T19:34:17.342Z,0.10
2018-12-15T19:36:42.300Z,0.10
2018-12-15T19:39:11.573Z,0.10
2018-12-15T19:41:40.167Z,0.10
2018-12-15T19:44:09.420Z,0.10
2018-12-15T19:46:37.919Z,0.10
2018-12-15T19:49:06.456Z,0.10
2018-12-15T19:51:34.998Z,0.10
2018-12-15T19:54:03.454Z,0.00
2018-12-15T19:56:32.993Z,0.00
2018-12-15T19:59:01.495Z,0.00
2018-12-15T20:01:29.986Z,0.00
2018-12-15T20:03:58.445Z,0.00
2018-12-15T20:06:26.931Z,0.00
2018-12-15T20:08:55.423Z,0.00
2018-12-15T20:11:23.997Z,0.00
2018-12-15T20:13:52.493Z,0.00
2018-12-15T20:16:20.960Z,0.00
2018-12-15T20:18:49.434Z,0.00
2018-12-15T20:21:17.957Z,-0.10
2018-12-15T20:23:46.448Z,0.00
2018-12-15T20:26:15.035Z,-0.10
2018-12-15T20:28:43.651Z,0.00
2018-12-15T20:31:12.162Z,-0.10
2018-12-15T20:33:40.719Z,-0.10
2018-12-15T20:36:09.381Z,-0.10
2018-12-15T20:38:37.900Z,0.00
2018-12-15T20:41:06.435Z,-0.10
2018-12-15T20:43:34.953Z,-0.10
2018-12-15T20:46:03.480Z,0.00
2018-12-15T20:48:32.062Z,-0.10
2018-12-15T20:51:00.584Z,-0.10
2018-12-15T20:53:29.158Z,-0.10
2018-12-15T20:55:57.699Z,-0.10
2018-12-15T20:58:26.191Z,0.00
2018-12-15T21:00:54.672Z,-0.10
2018-12-15T21:03:23.127Z,0.00
2018-12-15T21:05:51.671Z,0.00
2018-12-15T21:08:20.182Z,0.00
2018-12-15T21:10:48.735Z,-0.10
2018-12-15T21:13:17.253Z,-0.10
2018-12-15T21:15:47.937Z,-0.10
2018-12-15T21:18:16.430Z,-0.10
2018-12-15T21:20:45.087Z,-0.10
2018-12-15T21:23:13.723Z,-0.10
2018-12-15T21:25:42.521Z,0.00
2018-12-15T21:28:11.096Z,0.00
2018-12-15T21:30:39.736Z,-0.10
2018-12-15T21:33:08.275Z,0.00
2018-12-15T21:35:36.872Z,0.00
2018-12-15T21:38:05.353Z,0.00
2018-12-15T21:40:33.844Z,0.00
2018-12-15T21:43:02.401Z,0.00
2018-12-15T21:45:31.056Z,0.00
2018-12-15T21:47:59.652Z,0.00
2018-12-15T21:50:28.126Z,0.00
2018-12-15T21:52:56.728Z,0.10
2018-12-15T21:55:25.258Z,0.10
2018-12-15T21:57:53.777Z,0.10
2018-12-15T22:00:22.255Z,0.10
2018-12-15T22:02:50.834Z,0.20
2018-12-15T22:05:19.324Z,0.20
2018-12-15T22:07:47.914Z,0.30
2018-12-15T22:10:16.440Z,0.20
2018-12-15T22:12:44.955Z,0.30
2018-12-15T22:15:13.489Z,0.30
2018-12-15T22:17:41.931Z,0.30
2018-12-15T22:20:10.827Z,0.30
2018-12-15T22:22:39.518Z,0.30
2018-12-15T22:25:08.123Z,0.30
2018-12-15T22:27:36.612Z,0.30
2018-12-15T22:30:05.865Z,0.30
2018-12-15T22:32:34.308Z,0.30
2018-12-15T22:35:02.797Z,0.30
2018-12-15T22:37:31.251Z,0.30
2018-12-15T22:39:59.745Z,0.30
2018-12-15T22:42:28.196Z,0.30
2018-12-15T22:44:57.591Z,0.30
2018-12-15T22:47:26.067Z,0.30
2018-12-15T22:49:54.582Z,0.40
2018-12-15T22:52:23.066Z,0.40
2018-12-15T22:54:51.666Z,0.40
2018-12-15T22:57:20.258Z,0.40
2018-12-15T22:59:48.845Z,0.40
2018-12-15T23:02:17.329Z,0.40
2018-12-15T23:04:45.819Z,0.40
2018-12-15T23:07:14.275Z,0.40
2018-12-15T23:09:42.873Z,0.40
2018-12-15T23:12:11.519Z,0.40
2018-12-15T23:14:40.163Z,0.40
2018-12-15T23:17:09.014Z,0.40
2018-12-15T23:19:37.496Z,0.50
2018-12-15T23:22:05.991Z,0.50
2018-12-15T23:24:34.537Z,0.50
2018-12-15T23:27:03.003Z,0.50
2018-12-15T23:29:38.206Z,0.50
2018-12-15T23:32:06.778Z,0.50
2018-12-15T23:34:35.297Z,0.50
2018-12-15T23:37:04.004Z,0.60
2018-12-15T23:39:32.637Z,0.60
2018-12-15T23:42:01.187Z,0.60
2018-12-15T23:44:29.670Z,0.60
2018-12-15T23:46:58.178Z,0.60
2018-12-15T23:49:26.714Z,0.70
2018-12-15T23:51:55.193Z,0.70
2018-12-15T23:54:23.674Z,0.70
2018-12-15T23:56:52.205Z,0.70
2018-12-15T23:59:20.770Z,0.70
